NIEUW!!! Volg onze weer- en natuurfoto's op Instagram @ weerstationmaaseik.be

WS Maaseik 1 Meer informatie WS Maaseik 1


WS Maaseik 2 Meer informatie WS Maaseik 2


Regen radar Meer informatie rain snow radar


Bezoek onze andere website:

Vorige versie
weerstation Maaseik


Bezoek ook eens deze sites:

Weerstation Geleen

Weerstation Luyksgestel



Het weer levert geen direct gevaar op.    Er zijn geen waarschuwingen afgegeven.

METAR rapporten vliegvelden

   
EBBR - Brussels International Airport, Belgium
Afstand tot: W 14 km
Gewijzigd: 26-05-2019 05:50
Helder  
Helder  
   Wind: ZW 13 km/h
Wind: ZW 13 km/h
Temperatuur: 11°C
Dauwpunt: 9°C
Vochtigheid: 88%
Barometer: 1016 hPa
Zicht: meer dan 10 km
Bewolking: Helder ft
EBBR 260350Z 22007KT CAVOK 11/09 Q1016 NOSIG
EBBE - Beauvechain (Bevekom), Belgium
Afstand tot: ZZO 17 km
Gewijzigd: 26-05-2019 05:55
Helder  
Helder  
   Wind: ZW 11.1 km/h
Wind: ZW 11.1 km/h
Temperatuur: 10°C
Voelt als: 8°C
Dauwpunt: 9°C
Vochtigheid: 94%
Barometer: 1016 hPa
Bewolking: Clear
Zicht: 7 km
Bewolking: Helder ft
EBBE 260355Z AUTO 22006KT 7000 NCD 10/09 Q1016 WHT
EBDT - Schaffen, Belgium
Afstand tot: ONO 29 km
Gewijzigd: 26-05-2019 06:14
Nevel, Helder  
Nevel, Helder  
   Wind: Zuiden 9.3 km/h
Wind: Zuiden 9.3 km/h
Temperatuur: 9°C
Voelt als: 8°C
Dauwpunt: 8°C
Vochtigheid: 94%
Barometer: 1016 hPa
Bewolking: Clear
Zicht: 3.5 km
Bewolking: Helder ft
EBDT 260414Z AUTO 19005KT 3500 BR NCD 09/08 Q1016 YLO
EBAW - Antwerp/Deurne, Belgium
Afstand tot: NNW 38 km
Gewijzigd: 26-05-2019 05:50
Helder  
Helder  
   Wind: ZZW 9.3 km/h
Wind: ZZW 9.3 km/h
Temperatuur: 11°C
Dauwpunt: 9°C
Vochtigheid: 88%
Barometer: 1015 hPa
Bewolking: Clear
Zicht: 9 km
Bewolking: Helder ft
EBAW 260350Z AUTO 21005KT 9000 // NCD 11/09 Q1015
EBCI - Charleroi/Gosselies, Belgium
Afstand tot: ZZW 51 km
Gewijzigd: 26-05-2019 05:50
Gedeeltelijk bewolkt  
Gedeeltelijk bewolkt  
   Wind: ZZW 14.8 km/h
Wind: ZZW 14.8 km/h
Temperatuur: 10°C
Voelt als: 8°C
Dauwpunt: 9°C
Vochtigheid: 94%
Barometer: 1017 hPa
Bewolking: Partly Cloudy
Zicht: 9 km
Bewolking: Gedeeltelijk bewolkt ft
EBCI 260350Z 21008KT 9000 NSC 10/09 Q1017 NOSIG
EBLG - Bierset/Liege, Belgium
Afstand tot: OZO 60 km
Gewijzigd: 26-05-2019 05:50
Nevel, Licht bewolkt  
Nevel, Licht bewolkt  
   Wind: Zuiden 11.1 km/h
Wind: Zuiden 11.1 km/h
Temperatuur: 10°C
Voelt als: 8°C
Dauwpunt: 8°C
Vochtigheid: 88%
Barometer: 1016 hPa
Bewolking: Few Clouds
Zicht: 5 km
Bewolking: Licht bewolkt 3700 ft
EBLG 260350Z 18006KT 5000 BR FEW037 10/08 Q1016

Script ontwikkeld door  Saratoga-weather.org Aangepast voor de template door  Weerstation Leuven

U vindt ons ook hier:

Het Weer Aktueel

Weather Underground

AWEKAS